sensor_id;sensor_type;location;lat;lon;timestamp;temperature;humidity
30308;DHT22;17114;52.314;8.910;2023-04-03T00:00:59;1.90;99.90
30308;DHT22;17114;52.314;8.910;2023-04-03T00:03:27;1.80;99.90
30308;DHT22;17114;52.314;8.910;2023-04-03T00:05:54;1.80;99.90
30308;DHT22;17114;52.314;8.910;2023-04-03T00:08:22;1.80;99.90
30308;DHT22;17114;52.314;8.910;2023-04-03T00:10:50;1.70;99.90
30308;DHT22;17114;52.314;8.910;2023-04-03T00:13:18;1.70;99.90
30308;DHT22;17114;52.314;8.910;2023-04-03T00:15:46;1.70;99.90
30308;DHT22;17114;52.314;8.910;2023-04-03T00:18:13;1.70;99.90
30308;DHT22;17114;52.314;8.910;2023-04-03T00:20:40;1.60;99.90
30308;DHT22;17114;52.314;8.910;2023-04-03T00:23:08;1.60;99.90
30308;DHT22;17114;52.314;8.910;2023-04-03T00:25:35;1.60;99.90
30308;DHT22;17114;52.314;8.910;2023-04-03T00:28:04;1.60;99.90
30308;DHT22;17114;52.314;8.910;2023-04-03T00:30:31;1.60;99.90
30308;DHT22;17114;52.314;8.910;2023-04-03T00:32:59;1.50;99.90
30308;DHT22;17114;52.314;8.910;2023-04-03T00:35:28;1.50;99.90
30308;DHT22;17114;52.314;8.910;2023-04-03T00:37:57;1.50;99.90
30308;DHT22;17114;52.314;8.910;2023-04-03T00:40:26;1.30;99.90
30308;DHT22;17114;52.314;8.910;2023-04-03T00:42:58;1.40;99.90
30308;DHT22;17114;52.314;8.910;2023-04-03T00:45:39;1.40;99.90
30308;DHT22;17114;52.314;8.910;2023-04-03T00:48:10;1.40;99.90
30308;DHT22;17114;52.314;8.910;2023-04-03T00:50:41;1.30;99.90
30308;DHT22;17114;52.314;8.910;2023-04-03T00:53:13;1.30;99.90
30308;DHT22;17114;52.314;8.910;2023-04-03T00:55:53;1.20;99.90
30308;DHT22;17114;52.314;8.910;2023-04-03T00:58:31;1.20;99.90
30308;DHT22;17114;52.314;8.910;2023-04-03T01:01:05;1.20;99.90
30308;DHT22;17114;52.314;8.910;2023-04-03T01:03:34;1.10;99.90
30308;DHT22;17114;52.314;8.910;2023-04-03T01:06:02;1.10;99.90
30308;DHT22;17114;52.314;8.910;2023-04-03T01:08:30;1.10;99.90
30308;DHT22;17114;52.314;8.910;2023-04-03T01:10:58;1.10;99.90
30308;DHT22;17114;52.314;8.910;2023-04-03T01:13:31;1.00;99.90
30308;DHT22;17114;52.314;8.910;2023-04-03T01:16:04;1.00;99.90
30308;DHT22;17114;52.314;8.910;2023-04-03T01:18:35;1.00;99.90
30308;DHT22;17114;52.314;8.910;2023-04-03T01:21:42;0.90;99.90
30308;DHT22;17114;52.314;8.910;2023-04-03T01:24:41;0.90;99.90
30308;DHT22;17114;52.314;8.910;2023-04-03T01:27:10;0.90;99.90
30308;DHT22;17114;52.314;8.910;2023-04-03T01:29:40;0.90;99.90
30308;DHT22;17114;52.314;8.910;2023-04-03T01:32:10;0.80;99.90
30308;DHT22;17114;52.314;8.910;2023-04-03T01:34:39;0.70;99.90
30308;DHT22;17114;52.314;8.910;2023-04-03T01:37:06;0.70;99.90
30308;DHT22;17114;52.314;8.910;2023-04-03T01:39:33;0.70;99.90
30308;DHT22;17114;52.314;8.910;2023-04-03T01:42:01;0.60;99.90
30308;DHT22;17114;52.314;8.910;2023-04-03T01:44:28;0.60;99.90
30308;DHT22;17114;52.314;8.910;2023-04-03T01:46:55;0.60;99.90
30308;DHT22;17114;52.314;8.910;2023-04-03T01:49:22;0.60;99.90
30308;DHT22;17114;52.314;8.910;2023-04-03T01:51:50;0.50;99.90
30308;DHT22;17114;52.314;8.910;2023-04-03T01:54:17;0.50;99.90
30308;DHT22;17114;52.314;8.910;2023-04-03T01:56:44;0.50;99.90
30308;DHT22;17114;52.314;8.910;2023-04-03T01:59:11;0.50;99.90
30308;DHT22;17114;52.314;8.910;2023-04-03T02:01:38;0.40;99.90
30308;DHT22;17114;52.314;8.910;2023-04-03T02:04:05;0.40;99.90
30308;DHT22;17114;52.314;8.910;2023-04-03T02:06:33;0.40;99.90
30308;DHT22;17114;52.314;8.910;2023-04-03T02:09:01;0.40;99.90
30308;DHT22;17114;52.314;8.910;2023-04-03T02:11:28;0.30;99.90
30308;DHT22;17114;52.314;8.910;2023-04-03T02:13:55;0.40;99.90
30308;DHT22;17114;52.314;8.910;2023-04-03T02:16:22;0.30;99.90
30308;DHT22;17114;52.314;8.910;2023-04-03T02:18:49;0.30;99.90
30308;DHT22;17114;52.314;8.910;2023-04-03T02:21:17;0.30;99.90
30308;DHT22;17114;52.314;8.910;2023-04-03T02:23:44;0.20;99.90
30308;DHT22;17114;52.314;8.910;2023-04-03T02:26:13;0.20;99.90
30308;DHT22;17114;52.314;8.910;2023-04-03T02:28:41;0.20;99.90
30308;DHT22;17114;52.314;8.910;2023-04-03T02:31:09;0.20;99.90
30308;DHT22;17114;52.314;8.910;2023-04-03T02:33:37;0.20;99.90
30308;DHT22;17114;52.314;8.910;2023-04-03T02:36:05;0.20;99.90
30308;DHT22;17114;52.314;8.910;2023-04-03T02:38:33;0.10;99.90
30308;DHT22;17114;52.314;8.910;2023-04-03T02:41:05;0.10;99.90
30308;DHT22;17114;52.314;8.910;2023-04-03T02:43:33;0.00;99.90
30308;DHT22;17114;52.314;8.910;2023-04-03T02:46:00;0.10;99.90
30308;DHT22;17114;52.314;8.910;2023-04-03T02:48:28;0.00;99.90
30308;DHT22;17114;52.314;8.910;2023-04-03T02:50:55;0.00;99.90
30308;DHT22;17114;52.314;8.910;2023-04-03T02:53:23;-0.10;99.90
30308;DHT22;17114;52.314;8.910;2023-04-03T02:55:51;-0.10;99.90
30308;DHT22;17114;52.314;8.910;2023-04-03T02:58:19;-0.10;99.90
30308;DHT22;17114;52.314;8.910;2023-04-03T03:00:46;-0.10;99.90
30308;DHT22;17114;52.314;8.910;2023-04-03T03:03:15;-0.10;99.90
30308;DHT22;17114;52.314;8.910;2023-04-03T03:05:42;-0.10;99.90
30308;DHT22;17114;52.314;8.910;2023-04-03T03:08:10;-0.10;99.90
30308;DHT22;17114;52.314;8.910;2023-04-03T03:10:37;-0.10;99.90
30308;DHT22;17114;52.314;8.910;2023-04-03T03:13:05;-0.20;99.90
30308;DHT22;17114;52.314;8.910;2023-04-03T03:15:32;-0.20;99.90
30308;DHT22;17114;52.314;8.910;2023-04-03T03:18:00;-0.20;99.90
30308;DHT22;17114;52.314;8.910;2023-04-03T03:20:27;-0.10;99.90
30308;DHT22;17114;52.314;8.910;2023-04-03T03:22:55;-0.10;99.90
30308;DHT22;17114;52.314;8.910;2023-04-03T03:25:24;-0.10;99.90
30308;DHT22;17114;52.314;8.910;2023-04-03T03:27:52;-0.10;99.90
30308;DHT22;17114;52.314;8.910;2023-04-03T03:30:19;-0.10;99.90
30308;DHT22;17114;52.314;8.910;2023-04-03T03:32:46;-0.10;99.90
30308;DHT22;17114;52.314;8.910;2023-04-03T03:35:14;-0.20;99.90
30308;DHT22;17114;52.314;8.910;2023-04-03T03:37:41;-0.20;99.90
30308;DHT22;17114;52.314;8.910;2023-04-03T03:40:09;-0.20;99.90
30308;DHT22;17114;52.314;8.910;2023-04-03T03:42:39;-0.20;99.90
30308;DHT22;17114;52.314;8.910;2023-04-03T03:45:08;-0.20;99.90
30308;DHT22;17114;52.314;8.910;2023-04-03T03:47:36;-0.20;99.90
30308;DHT22;17114;52.314;8.910;2023-04-03T03:50:05;-0.40;99.90
30308;DHT22;17114;52.314;8.910;2023-04-03T03:52:36;-0.30;99.90
30308;DHT22;17114;52.314;8.910;2023-04-03T03:55:04;-0.20;99.90
30308;DHT22;17114;52.314;8.910;2023-04-03T03:57:31;-0.20;99.90
30308;DHT22;17114;52.314;8.910;2023-04-03T03:59:59;-0.30;99.90
30308;DHT22;17114;52.314;8.910;2023-04-03T04:02:29;-0.30;99.90
30308;DHT22;17114;52.314;8.910;2023-04-03T04:04:57;-0.30;99.90
30308;DHT22;17114;52.314;8.910;2023-04-03T04:07:26;-0.30;99.90
30308;DHT22;17114;52.314;8.910;2023-04-03T04:09:56;-0.30;99.90
30308;DHT22;17114;52.314;8.910;2023-04-03T04:12:23;-0.30;99.90
30308;DHT22;17114;52.314;8.910;2023-04-03T04:14:51;-0.30;99.90
30308;DHT22;17114;52.314;8.910;2023-04-03T04:17:19;-0.30;99.90
30308;DHT22;17114;52.314;8.910;2023-04-03T04:19:46;-0.40;99.90
30308;DHT22;17114;52.314;8.910;2023-04-03T04:22:17;-0.40;99.90
30308;DHT22;17114;52.314;8.910;2023-04-03T04:24:45;-0.50;99.90
30308;DHT22;17114;52.314;8.910;2023-04-03T04:27:13;-0.40;99.90
30308;DHT22;17114;52.314;8.910;2023-04-03T04:29:42;-0.50;99.90
30308;DHT22;17114;52.314;8.910;2023-04-03T04:32:10;-0.40;99.90
30308;DHT22;17114;52.314;8.910;2023-04-03T04:34:37;-0.50;99.90
30308;DHT22;17114;52.314;8.910;2023-04-03T04:37:04;-0.50;99.90
30308;DHT22;17114;52.314;8.910;2023-04-03T04:39:31;-0.50;99.90
30308;DHT22;17114;52.314;8.910;2023-04-03T04:41:59;-0.40;99.90
30308;DHT22;17114;52.314;8.910;2023-04-03T04:44:27;-0.40;99.90
30308;DHT22;17114;52.314;8.910;2023-04-03T04:46:55;-0.50;99.90
30308;DHT22;17114;52.314;8.910;2023-04-03T04:49:24;-0.50;99.90
30308;DHT22;17114;52.314;8.910;2023-04-03T04:51:51;-0.50;99.90
30308;DHT22;17114;52.314;8.910;2023-04-03T04:54:21;-0.50;99.90
30308;DHT22;17114;52.314;8.910;2023-04-03T04:56:50;-0.50;99.90
30308;DHT22;17114;52.314;8.910;2023-04-03T04:59:17;-0.50;99.90
30308;DHT22;17114;52.314;8.910;2023-04-03T05:01:47;-0.50;99.90
30308;DHT22;17114;52.314;8.910;2023-04-03T05:04:14;-0.50;99.90
30308;DHT22;17114;52.314;8.910;2023-04-03T05:06:42;-0.50;99.90
30308;DHT22;17114;52.314;8.910;2023-04-03T05:09:11;-0.50;99.90
30308;DHT22;17114;52.314;8.910;2023-04-03T05:11:39;-0.50;99.90
30308;DHT22;17114;52.314;8.910;2023-04-03T05:14:07;-0.40;99.90
30308;DHT22;17114;52.314;8.910;2023-04-03T05:16:37;-0.50;99.90
30308;DHT22;17114;52.314;8.910;2023-04-03T05:19:05;-0.50;99.90
30308;DHT22;17114;52.314;8.910;2023-04-03T05:21:38;-0.40;99.90
30308;DHT22;17114;52.314;8.910;2023-04-03T05:24:07;-0.50;99.90
30308;DHT22;17114;52.314;8.910;2023-04-03T05:26:36;-0.40;99.90
30308;DHT22;17114;52.314;8.910;2023-04-03T05:29:06;-0.20;99.90
30308;DHT22;17114;52.314;8.910;2023-04-03T05:31:33;-0.10;99.90
30308;DHT22;17114;52.314;8.910;2023-04-03T05:34:02;0.00;99.90
30308;DHT22;17114;52.314;8.910;2023-04-03T05:36:30;0.20;99.90
30308;DHT22;17114;52.314;8.910;2023-04-03T05:39:00;0.50;99.90
30308;DHT22;17114;52.314;8.910;2023-04-03T05:41:27;0.90;99.90
30308;DHT22;17114;52.314;8.910;2023-04-03T05:43:54;1.30;99.90
30308;DHT22;17114;52.314;8.910;2023-04-03T05:46:24;1.60;99.90
30308;DHT22;17114;52.314;8.910;2023-04-03T05:48:51;1.90;99.90
30308;DHT22;17114;52.314;8.910;2023-04-03T05:51:30;2.10;99.90
30308;DHT22;17114;52.314;8.910;2023-04-03T05:54:19;2.40;99.90
30308;DHT22;17114;52.314;8.910;2023-04-03T05:56:46;2.90;99.90
30308;DHT22;17114;52.314;8.910;2023-04-03T05:59:13;3.30;99.90
30308;DHT22;17114;52.314;8.910;2023-04-03T06:01:41;3.70;99.90
30308;DHT22;17114;52.314;8.910;2023-04-03T06:04:09;4.10;99.90
30308;DHT22;17114;52.314;8.910;2023-04-03T06:06:50;4.40;99.90
30308;DHT22;17114;52.314;8.910;2023-04-03T06:09:24;4.60;99.90
30308;DHT22;17114;52.314;8.910;2023-04-03T06:11:53;4.60;99.90
30308;DHT22;17114;52.314;8.910;2023-04-03T06:14:21;4.60;99.90
30308;DHT22;17114;52.314;8.910;2023-04-03T06:16:48;4.80;99.90
30308;DHT22;17114;52.314;8.910;2023-04-03T06:19:16;5.10;99.90
30308;DHT22;17114;52.314;8.910;2023-04-03T06:21:43;5.00;99.90
30308;DHT22;17114;52.314;8.910;2023-04-03T06:24:14;5.00;99.90
30308;DHT22;17114;52.314;8.910;2023-04-03T06:26:42;4.90;99.90
30308;DHT22;17114;52.314;8.910;2023-04-03T06:29:10;5.10;99.90
30308;DHT22;17114;52.314;8.910;2023-04-03T06:31:37;5.30;99.90
30308;DHT22;17114;52.314;8.910;2023-04-03T06:34:04;5.20;99.90
30308;DHT22;17114;52.314;8.910;2023-04-03T06:36:35;5.50;99.90
30308;DHT22;17114;52.314;8.910;2023-04-03T06:39:03;6.00;99.90
30308;DHT22;17114;52.314;8.910;2023-04-03T06:41:30;6.30;99.90
30308;DHT22;17114;52.314;8.910;2023-04-03T06:43:57;6.50;99.90
30308;DHT22;17114;52.314;8.910;2023-04-03T06:46:26;6.60;99.90
30308;DHT22;17114;52.314;8.910;2023-04-03T06:48:54;6.70;99.90
30308;DHT22;17114;52.314;8.910;2023-04-03T06:51:26;7.00;99.90
30308;DHT22;17114;52.314;8.910;2023-04-03T06:53:56;7.20;99.90
30308;DHT22;17114;52.314;8.910;2023-04-03T06:56:24;7.60;99.90
30308;DHT22;17114;52.314;8.910;2023-04-03T06:58:53;7.80;99.90
30308;DHT22;17114;52.314;8.910;2023-04-03T07:01:26;8.00;99.90
30308;DHT22;17114;52.314;8.910;2023-04-03T07:03:55;8.30;99.90
30308;DHT22;17114;52.314;8.910;2023-04-03T07:06:22;8.70;99.90
30308;DHT22;17114;52.314;8.910;2023-04-03T07:08:50;9.00;99.90
30308;DHT22;17114;52.314;8.910;2023-04-03T07:11:17;9.10;99.90
30308;DHT22;17114;52.314;8.910;2023-04-03T07:13:44;9.00;99.90
30308;DHT22;17114;52.314;8.910;2023-04-03T07:16:11;8.60;99.90
30308;DHT22;17114;52.314;8.910;2023-04-03T07:18:39;8.20;99.90
30308;DHT22;17114;52.314;8.910;2023-04-03T07:21:06;8.50;99.90
30308;DHT22;17114;52.314;8.910;2023-04-03T07:23:36;8.00;99.90
30308;DHT22;17114;52.314;8.910;2023-04-03T07:26:03;7.50;99.90
30308;DHT22;17114;52.314;8.910;2023-04-03T07:28:34;7.80;99.90
30308;DHT22;17114;52.314;8.910;2023-04-03T07:31:04;7.90;99.90
30308;DHT22;17114;52.314;8.910;2023-04-03T07:33:31;7.80;99.90
30308;DHT22;17114;52.314;8.910;2023-04-03T07:36:00;7.80;99.90
30308;DHT22;17114;52.314;8.910;2023-04-03T07:38:28;7.70;99.90
30308;DHT22;17114;52.314;8.910;2023-04-03T07:40:55;7.70;99.90
30308;DHT22;17114;52.314;8.910;2023-04-03T07:43:22;8.00;99.90
30308;DHT22;17114;52.314;8.910;2023-04-03T07:45:52;8.00;99.90
30308;DHT22;17114;52.314;8.910;2023-04-03T07:48:25;8.40;99.90
30308;DHT22;17114;52.314;8.910;2023-04-03T07:50:53;8.70;99.90
30308;DHT22;17114;52.314;8.910;2023-04-03T07:53:22;8.70;99.90
30308;DHT22;17114;52.314;8.910;2023-04-03T07:55:52;9.00;99.90
30308;DHT22;17114;52.314;8.910;2023-04-03T07:58:22;9.40;99.90
30308;DHT22;17114;52.314;8.910;2023-04-03T08:00:49;9.50;99.90
30308;DHT22;17114;52.314;8.910;2023-04-03T08:03:17;9.60;99.90
30308;DHT22;17114;52.314;8.910;2023-04-03T08:05:46;9.40;99.90
30308;DHT22;17114;52.314;8.910;2023-04-03T08:08:18;9.10;99.90
30308;DHT22;17114;52.314;8.910;2023-04-03T08:10:52;9.20;99.90
30308;DHT22;17114;52.314;8.910;2023-04-03T08:13:21;9.10;99.90
30308;DHT22;17114;52.314;8.910;2023-04-03T08:15:48;8.80;99.90
30308;DHT22;17114;52.314;8.910;2023-04-03T08:18:16;9.00;99.90
30308;DHT22;17114;52.314;8.910;2023-04-03T08:20:43;9.00;99.90
30308;DHT22;17114;52.314;8.910;2023-04-03T08:23:11;9.10;99.90
30308;DHT22;17114;52.314;8.910;2023-04-03T08:25:42;9.40;99.90
30308;DHT22;17114;52.314;8.910;2023-04-03T08:28:11;9.60;99.90
30308;DHT22;17114;52.314;8.910;2023-04-03T08:30:42;9.90;99.90
30308;DHT22;17114;52.314;8.910;2023-04-03T08:33:10;10.00;99.90
30308;DHT22;17114;52.314;8.910;2023-04-03T08:35:41;9.90;99.90
30308;DHT22;17114;52.314;8.910;2023-04-03T08:38:10;9.80;99.90
30308;DHT22;17114;52.314;8.910;2023-04-03T08:40:40;9.80;99.90
30308;DHT22;17114;52.314;8.910;2023-04-03T08:46:14;9.90;99.90
30308;DHT22;17114;52.314;8.910;2023-04-03T08:48:44;9.70;99.90
30308;DHT22;17114;52.314;8.910;2023-04-03T08:51:19;9.50;99.90
30308;DHT22;17114;52.314;8.910;2023-04-03T08:54:04;9.30;99.90
30308;DHT22;17114;52.314;8.910;2023-04-03T08:56:35;9.40;99.90
30308;DHT22;17114;52.314;8.910;2023-04-03T08:59:11;9.30;99.90
30308;DHT22;17114;52.314;8.910;2023-04-03T09:01:41;9.40;99.90
30308;DHT22;17114;52.314;8.910;2023-04-03T09:04:14;9.20;99.90
30308;DHT22;17114;52.314;8.910;2023-04-03T09:06:59;9.50;99.90
30308;DHT22;17114;52.314;8.910;2023-04-03T09:12:06;9.80;99.90
30308;DHT22;17114;52.314;8.910;2023-04-03T09:15:17;9.90;99.90
30308;DHT22;17114;52.314;8.910;2023-04-03T09:23:29;9.50;99.90
30308;DHT22;17114;52.314;8.910;2023-04-03T09:26:37;9.40;99.90
30308;DHT22;17114;52.314;8.910;2023-04-03T09:29:08;9.60;99.90
30308;DHT22;17114;52.314;8.910;2023-04-03T09:31:42;9.80;99.90
30308;DHT22;17114;52.314;8.910;2023-04-03T09:34:18;10.40;99.90
30308;DHT22;17114;52.314;8.910;2023-04-03T09:36:49;10.50;99.90
30308;DHT22;17114;52.314;8.910;2023-04-03T09:39:29;10.90;99.90
30308;DHT22;17114;52.314;8.910;2023-04-03T09:42:03;11.40;99.90
30308;DHT22;17114;52.314;8.910;2023-04-03T09:44:38;11.90;99.90
30308;DHT22;17114;52.314;8.910;2023-04-03T09:47:26;12.10;99.90
30308;DHT22;17114;52.314;8.910;2023-04-03T09:50:19;12.00;99.90
30308;DHT22;17114;52.314;8.910;2023-04-03T09:52:49;11.70;99.90
30308;DHT22;17114;52.314;8.910;2023-04-03T09:55:23;11.40;99.90
30308;DHT22;17114;52.314;8.910;2023-04-03T09:58:01;11.20;99.90
30308;DHT22;17114;52.314;8.910;2023-04-03T10:00:38;10.20;99.90
30308;DHT22;17114;52.314;8.910;2023-04-03T10:03:35;9.70;99.90
30308;DHT22;17114;52.314;8.910;2023-04-03T10:06:04;9.30;99.90
30308;DHT22;17114;52.314;8.910;2023-04-03T10:09:00;9.40;99.90
30308;DHT22;17114;52.314;8.910;2023-04-03T10:11:28;9.40;99.90
30308;DHT22;17114;52.314;8.910;2023-04-03T10:13:58;9.60;99.90
30308;DHT22;17114;52.314;8.910;2023-04-03T10:19:41;10.10;99.90
30308;DHT22;17114;52.314;8.910;2023-04-03T10:22:18;10.90;99.90
30308;DHT22;17114;52.314;8.910;2023-04-03T10:36:10;11.50;99.90
30308;DHT22;17114;52.314;8.910;2023-04-03T10:52:49;11.70;99.90
30308;DHT22;17114;52.314;8.910;2023-04-03T10:58:06;12.10;99.90
30308;DHT22;17114;52.314;8.910;2023-04-03T11:00:43;11.60;99.90
30308;DHT22;17114;52.314;8.910;2023-04-03T11:05:55;10.10;99.90
30308;DHT22;17114;52.314;8.910;2023-04-03T11:11:00;9.10;99.90
30308;DHT22;17114;52.314;8.910;2023-04-03T11:13:42;8.90;99.90
30308;DHT22;17114;52.314;8.910;2023-04-03T11:16:19;8.60;99.90
30308;DHT22;17114;52.314;8.910;2023-04-03T11:18:59;8.40;99.90
30308;DHT22;17114;52.314;8.910;2023-04-03T11:21:33;8.30;99.90
30308;DHT22;17114;52.314;8.910;2023-04-03T11:24:05;8.20;99.90
30308;DHT22;17114;52.314;8.910;2023-04-03T11:26:39;8.10;99.90
30308;DHT22;17114;52.314;8.910;2023-04-03T11:29:15;8.00;99.90
30308;DHT22;17114;52.314;8.910;2023-04-03T11:32:33;7.90;99.90
30308;DHT22;17114;52.314;8.910;2023-04-03T11:35:06;7.80;99.90
30308;DHT22;17114;52.314;8.910;2023-04-03T11:37:43;7.60;99.90
30308;DHT22;17114;52.314;8.910;2023-04-03T11:42:47;8.00;99.90
30308;DHT22;17114;52.314;8.910;2023-04-03T11:45:37;8.20;99.90
30308;DHT22;17114;52.314;8.910;2023-04-03T11:50:55;8.90;99.90
30308;DHT22;17114;52.314;8.910;2023-04-03T11:53:32;9.20;99.90
30308;DHT22;17114;52.314;8.910;2023-04-03T11:56:04;9.00;99.90
30308;DHT22;17114;52.314;8.910;2023-04-03T11:58:33;8.80;99.90
30308;DHT22;17114;52.314;8.910;2023-04-03T12:01:05;8.50;99.90
30308;DHT22;17114;52.314;8.910;2023-04-03T12:29:20;10.60;99.90
30308;DHT22;17114;52.314;8.910;2023-04-03T12:34:30;10.70;99.90
30308;DHT22;17114;52.314;8.910;2023-04-03T12:40:25;10.10;99.90
30308;DHT22;17114;52.314;8.910;2023-04-03T12:43:01;9.50;99.90
30308;DHT22;17114;52.314;8.910;2023-04-03T12:45:49;9.10;99.90
30308;DHT22;17114;52.314;8.910;2023-04-03T12:48:26;8.80;99.90
30308;DHT22;17114;52.314;8.910;2023-04-03T12:50:55;8.60;99.90
30308;DHT22;17114;52.314;8.910;2023-04-03T12:53:26;8.30;99.90
30308;DHT22;17114;52.314;8.910;2023-04-03T12:55:55;8.10;99.90
30308;DHT22;17114;52.314;8.910;2023-04-03T12:58:25;8.10;99.90
30308;DHT22;17114;52.314;8.910;2023-04-03T13:01:04;7.90;99.90
30308;DHT22;17114;52.314;8.910;2023-04-03T13:03:40;8.20;99.90
30308;DHT22;17114;52.314;8.910;2023-04-03T13:06:19;8.80;99.90
30308;DHT22;17114;52.314;8.910;2023-04-03T13:08:52;9.10;99.90
30308;DHT22;17114;52.314;8.910;2023-04-03T13:11:21;8.90;99.90
30308;DHT22;17114;52.314;8.910;2023-04-03T13:14:04;8.90;99.90
30308;DHT22;17114;52.314;8.910;2023-04-03T13:16:33;8.90;99.90
30308;DHT22;17114;52.314;8.910;2023-04-03T13:19:03;9.00;99.90
30308;DHT22;17114;52.314;8.910;2023-04-03T13:21:33;9.20;99.90
30308;DHT22;17114;52.314;8.910;2023-04-03T13:24:08;9.40;99.90
30308;DHT22;17114;52.314;8.910;2023-04-03T13:26:42;9.30;99.90
30308;DHT22;17114;52.314;8.910;2023-04-03T13:29:28;9.40;99.90
30308;DHT22;17114;52.314;8.910;2023-04-03T13:31:59;9.40;99.90
30308;DHT22;17114;52.314;8.910;2023-04-03T13:34:40;9.40;99.90
30308;DHT22;17114;52.314;8.910;2023-04-03T13:37:21;9.50;99.90
30308;DHT22;17114;52.314;8.910;2023-04-03T13:40:19;9.50;99.90
30308;DHT22;17114;52.314;8.910;2023-04-03T13:43:16;9.40;99.90
30308;DHT22;17114;52.314;8.910;2023-04-03T13:46:19;9.20;99.90
30308;DHT22;17114;52.314;8.910;2023-04-03T13:48:52;9.10;99.90
30308;DHT22;17114;52.314;8.910;2023-04-03T13:51:23;9.10;99.90
30308;DHT22;17114;52.314;8.910;2023-04-03T13:53:55;9.30;99.90
30308;DHT22;17114;52.314;8.910;2023-04-03T13:56:38;9.40;99.90
30308;DHT22;17114;52.314;8.910;2023-04-03T13:59:33;9.50;99.90
30308;DHT22;17114;52.314;8.910;2023-04-03T14:04:54;9.10;99.90
30308;DHT22;17114;52.314;8.910;2023-04-03T16:56:33;7.10;99.90
30308;DHT22;17114;52.314;8.910;2023-04-03T16:59:01;6.90;99.90
30308;DHT22;17114;52.314;8.910;2023-04-03T17:01:28;7.00;99.90
30308;DHT22;17114;52.314;8.910;2023-04-03T17:03:56;7.00;99.90
30308;DHT22;17114;52.314;8.910;2023-04-03T17:06:23;7.00;99.90
30308;DHT22;17114;52.314;8.910;2023-04-03T17:08:51;7.00;99.90
30308;DHT22;17114;52.314;8.910;2023-04-03T17:11:19;6.90;99.90
30308;DHT22;17114;52.314;8.910;2023-04-03T17:13:47;6.90;99.90
30308;DHT22;17114;52.314;8.910;2023-04-03T17:16:15;6.90;99.90
30308;DHT22;17114;52.314;8.910;2023-04-03T17:18:43;6.80;99.90
30308;DHT22;17114;52.314;8.910;2023-04-03T17:21:11;6.80;99.90
30308;DHT22;17114;52.314;8.910;2023-04-03T17:23:40;6.70;99.90
30308;DHT22;17114;52.314;8.910;2023-04-03T17:26:08;6.60;99.90
30308;DHT22;17114;52.314;8.910;2023-04-03T17:28:35;6.60;99.90
30308;DHT22;17114;52.314;8.910;2023-04-03T17:31:04;6.50;99.90
30308;DHT22;17114;52.314;8.910;2023-04-03T17:33:31;6.50;99.90
30308;DHT22;17114;52.314;8.910;2023-04-03T17:36:00;6.40;99.90
30308;DHT22;17114;52.314;8.910;2023-04-03T17:38:30;6.30;99.90
30308;DHT22;17114;52.314;8.910;2023-04-03T17:41:00;6.30;99.90
30308;DHT22;17114;52.314;8.910;2023-04-03T17:43:28;6.20;99.90
30308;DHT22;17114;52.314;8.910;2023-04-03T17:46:00;6.20;99.90
30308;DHT22;17114;52.314;8.910;2023-04-03T17:48:31;6.00;99.90
30308;DHT22;17114;52.314;8.910;2023-04-03T17:51:04;6.00;99.90
30308;DHT22;17114;52.314;8.910;2023-04-03T17:53:32;5.90;99.90
30308;DHT22;17114;52.314;8.910;2023-04-03T17:56:12;5.80;99.90
30308;DHT22;17114;52.314;8.910;2023-04-03T17:58:41;5.80;99.90
30308;DHT22;17114;52.314;8.910;2023-04-03T18:01:12;5.70;99.90
30308;DHT22;17114;52.314;8.910;2023-04-03T18:03:42;5.60;99.90
30308;DHT22;17114;52.314;8.910;2023-04-03T18:06:16;5.60;99.90
30308;DHT22;17114;52.314;8.910;2023-04-03T18:08:56;5.50;99.90
30308;DHT22;17114;52.314;8.910;2023-04-03T18:11:26;5.50;99.90
30308;DHT22;17114;52.314;8.910;2023-04-03T18:13:57;5.40;99.90
30308;DHT22;17114;52.314;8.910;2023-04-03T18:16:27;5.30;99.90
30308;DHT22;17114;52.314;8.910;2023-04-03T18:18:55;5.20;99.90
30308;DHT22;17114;52.314;8.910;2023-04-03T18:21:42;5.10;99.90
30308;DHT22;17114;52.314;8.910;2023-04-03T18:24:14;5.00;99.90
30308;DHT22;17114;52.314;8.910;2023-04-03T18:26:43;5.00;99.90
30308;DHT22;17114;52.314;8.910;2023-04-03T18:29:12;4.90;99.90
30308;DHT22;17114;52.314;8.910;2023-04-03T18:31:42;4.80;99.90
30308;DHT22;17114;52.314;8.910;2023-04-03T18:34:12;4.90;99.90
30308;DHT22;17114;52.314;8.910;2023-04-03T18:36:39;4.80;99.90
30308;DHT22;17114;52.314;8.910;2023-04-03T18:39:07;4.80;99.90
30308;DHT22;17114;52.314;8.910;2023-04-03T18:41:36;4.80;99.90
30308;DHT22;17114;52.314;8.910;2023-04-03T18:44:07;4.70;99.90
30308;DHT22;17114;52.314;8.910;2023-04-03T18:46:36;4.60;99.90
30308;DHT22;17114;52.314;8.910;2023-04-03T18:49:04;4.50;99.90
30308;DHT22;17114;52.314;8.910;2023-04-03T18:51:31;4.50;99.90
30308;DHT22;17114;52.314;8.910;2023-04-03T18:53:59;4.40;99.90
30308;DHT22;17114;52.314;8.910;2023-04-03T18:56:28;4.30;99.90
30308;DHT22;17114;52.314;8.910;2023-04-03T18:58:56;4.20;99.90
30308;DHT22;17114;52.314;8.910;2023-04-03T19:01:24;4.20;99.90
30308;DHT22;17114;52.314;8.910;2023-04-03T19:03:52;4.10;99.90
30308;DHT22;17114;52.314;8.910;2023-04-03T19:06:20;4.10;99.90
30308;DHT22;17114;52.314;8.910;2023-04-03T19:08:48;4.10;99.90
30308;DHT22;17114;52.314;8.910;2023-04-03T19:11:17;4.00;99.90
30308;DHT22;17114;52.314;8.910;2023-04-03T19:13:45;3.90;99.90
30308;DHT22;17114;52.314;8.910;2023-04-03T19:16:33;3.90;99.90
30308;DHT22;17114;52.314;8.910;2023-04-03T19:19:01;3.80;99.90
30308;DHT22;17114;52.314;8.910;2023-04-03T19:21:29;3.80;99.90
30308;DHT22;17114;52.314;8.910;2023-04-03T19:23:57;3.70;99.90
30308;DHT22;17114;52.314;8.910;2023-04-03T19:26:25;3.70;99.90
30308;DHT22;17114;52.314;8.910;2023-04-03T19:28:53;3.60;99.90
30308;DHT22;17114;52.314;8.910;2023-04-03T19:31:22;3.60;99.90
30308;DHT22;17114;52.314;8.910;2023-04-03T19:33:50;3.50;99.90
30308;DHT22;17114;52.314;8.910;2023-04-03T19:36:18;3.50;99.90
30308;DHT22;17114;52.314;8.910;2023-04-03T19:38:46;3.50;99.90
30308;DHT22;17114;52.314;8.910;2023-04-03T19:41:17;3.40;99.90
30308;DHT22;17114;52.314;8.910;2023-04-03T19:43:46;3.40;99.90
30308;DHT22;17114;52.314;8.910;2023-04-03T19:46:15;3.30;99.90
30308;DHT22;17114;52.314;8.910;2023-04-03T19:48:44;3.30;99.90
30308;DHT22;17114;52.314;8.910;2023-04-03T19:51:13;3.30;99.90
30308;DHT22;17114;52.314;8.910;2023-04-03T19:53:41;3.20;99.90
30308;DHT22;17114;52.314;8.910;2023-04-03T19:56:08;3.20;99.90
30308;DHT22;17114;52.314;8.910;2023-04-03T19:58:35;3.10;99.90
30308;DHT22;17114;52.314;8.910;2023-04-03T20:01:04;3.10;99.90
30308;DHT22;17114;52.314;8.910;2023-04-03T20:03:31;3.00;99.90
30308;DHT22;17114;52.314;8.910;2023-04-03T20:06:01;2.90;99.90
30308;DHT22;17114;52.314;8.910;2023-04-03T20:08:30;2.90;99.90
30308;DHT22;17114;52.314;8.910;2023-04-03T20:10:58;2.80;99.90
30308;DHT22;17114;52.314;8.910;2023-04-03T20:13:25;2.70;99.90
30308;DHT22;17114;52.314;8.910;2023-04-03T20:15:54;2.70;99.90
30308;DHT22;17114;52.314;8.910;2023-04-03T20:18:22;2.60;99.90
30308;DHT22;17114;52.314;8.910;2023-04-03T20:21:00;2.60;99.90
30308;DHT22;17114;52.314;8.910;2023-04-03T20:23:29;2.50;99.90